sensor_id;sensor_type;location;lat;lon;timestamp;pressure;altitude;pressure_sealevel;temperature;humidity
22964;BME280;11648;49.306;6.934;2023-12-22T00:00:01;97416.63;;;13.13;61.48
22964;BME280;11648;49.306;6.934;2023-12-22T00:02:30;97408.91;;;13.07;61.72
22964;BME280;11648;49.306;6.934;2023-12-22T00:04:57;97415.47;;;12.97;62.14
22964;BME280;11648;49.306;6.934;2023-12-22T00:07:24;97416.22;;;12.75;62.92
22964;BME280;11648;49.306;6.934;2023-12-22T00:09:51;97415.56;;;12.94;62.79
22964;BME280;11648;49.306;6.934;2023-12-22T00:12:18;97429.13;;;12.60;64.46
22964;BME280;11648;49.306;6.934;2023-12-22T00:14:44;97435.75;;;12.71;63.65
22964;BME280;11648;49.306;6.934;2023-12-22T00:17:11;97433.47;;;12.85;63.53
22964;BME280;11648;49.306;6.934;2023-12-22T00:19:38;97438.34;;;12.48;64.87
22964;BME280;11648;49.306;6.934;2023-12-22T00:22:05;97423.41;;;12.47;64.85
22964;BME280;11648;49.306;6.934;2023-12-22T00:24:32;97429.56;;;12.48;65.10
22964;BME280;11648;49.306;6.934;2023-12-22T00:26:59;97413.22;;;12.61;64.20
22964;BME280;11648;49.306;6.934;2023-12-22T00:29:26;97409.94;;;12.55;64.66
22964;BME280;11648;49.306;6.934;2023-12-22T00:31:55;97416.41;;;12.71;64.25
22964;BME280;11648;49.306;6.934;2023-12-22T00:34:22;97425.25;;;12.45;64.52
22964;BME280;11648;49.306;6.934;2023-12-22T00:36:49;97431.00;;;12.31;64.86
22964;BME280;11648;49.306;6.934;2023-12-22T00:39:16;97430.19;;;12.54;64.94
22964;BME280;11648;49.306;6.934;2023-12-22T00:41:42;97427.66;;;12.51;64.95
22964;BME280;11648;49.306;6.934;2023-12-22T00:44:09;97428.63;;;12.49;64.96
22964;BME280;11648;49.306;6.934;2023-12-22T00:46:36;97443.09;;;12.63;64.61
22964;BME280;11648;49.306;6.934;2023-12-22T00:49:03;97437.69;;;12.66;64.85
22964;BME280;11648;49.306;6.934;2023-12-22T00:51:30;97450.78;;;12.69;64.87
22964;BME280;11648;49.306;6.934;2023-12-22T00:53:57;97427.44;;;12.82;64.32
22964;BME280;11648;49.306;6.934;2023-12-22T00:56:23;97429.16;;;12.83;64.45
22964;BME280;11648;49.306;6.934;2023-12-22T00:58:50;97417.94;;;12.76;64.23
22964;BME280;11648;49.306;6.934;2023-12-22T01:01:28;97433.28;;;12.67;64.33
22964;BME280;11648;49.306;6.934;2023-12-22T01:03:55;97434.22;;;12.89;63.47
22964;BME280;11648;49.306;6.934;2023-12-22T01:06:21;97445.91;;;12.57;63.64
22964;BME280;11648;49.306;6.934;2023-12-22T01:08:53;97436.59;;;12.97;62.56
22964;BME280;11648;49.306;6.934;2023-12-22T01:11:20;97438.06;;;12.31;63.18
22964;BME280;11648;49.306;6.934;2023-12-22T01:13:47;97434.25;;;12.64;62.58
22964;BME280;11648;49.306;6.934;2023-12-22T01:16:13;97457.56;;;12.76;61.94
22964;BME280;11648;49.306;6.934;2023-12-22T01:18:42;97452.50;;;12.70;62.72
22964;BME280;11648;49.306;6.934;2023-12-22T01:21:11;97451.50;;;12.74;62.34
22964;BME280;11648;49.306;6.934;2023-12-22T01:23:38;97438.66;;;12.64;62.46
22964;BME280;11648;49.306;6.934;2023-12-22T01:26:05;97445.56;;;12.68;62.51
22964;BME280;11648;49.306;6.934;2023-12-22T01:28:33;97464.00;;;12.43;62.90
22964;BME280;11648;49.306;6.934;2023-12-22T01:31:01;97456.09;;;12.43;62.39
22964;BME280;11648;49.306;6.934;2023-12-22T01:33:28;97449.75;;;12.49;62.24
22964;BME280;11648;49.306;6.934;2023-12-22T01:35:56;97466.13;;;12.58;62.36
22964;BME280;11648;49.306;6.934;2023-12-22T01:38:23;97464.00;;;12.43;62.06
22964;BME280;11648;49.306;6.934;2023-12-22T01:40:50;97470.22;;;12.42;62.55
22964;BME280;11648;49.306;6.934;2023-12-22T01:43:17;97454.66;;;12.34;62.65
22964;BME280;11648;49.306;6.934;2023-12-22T01:45:50;97458.47;;;12.51;62.45
22964;BME280;11648;49.306;6.934;2023-12-22T01:48:19;97454.28;;;12.45;62.58
22964;BME280;11648;49.306;6.934;2023-12-22T01:50:46;97455.34;;;12.39;63.45
22964;BME280;11648;49.306;6.934;2023-12-22T01:53:13;97464.13;;;12.40;63.50
22964;BME280;11648;49.306;6.934;2023-12-22T01:55:40;97463.03;;;12.21;64.43
22964;BME280;11648;49.306;6.934;2023-12-22T01:58:07;97469.47;;;12.12;65.53
22964;BME280;11648;49.306;6.934;2023-12-22T02:00:34;97465.63;;;11.96;66.49
22964;BME280;11648;49.306;6.934;2023-12-22T02:03:01;97462.16;;;12.20;65.67
22964;BME280;11648;49.306;6.934;2023-12-22T02:05:28;97487.91;;;12.14;66.16
22964;BME280;11648;49.306;6.934;2023-12-22T02:07:56;97485.16;;;11.89;67.65
22964;BME280;11648;49.306;6.934;2023-12-22T02:10:23;97498.72;;;12.05;67.64
22964;BME280;11648;49.306;6.934;2023-12-22T02:12:50;97486.75;;;11.95;68.08
22964;BME280;11648;49.306;6.934;2023-12-22T02:15:17;97492.56;;;12.06;68.03
22964;BME280;11648;49.306;6.934;2023-12-22T02:18:04;97487.66;;;11.94;68.49
22964;BME280;11648;49.306;6.934;2023-12-22T02:20:32;97475.06;;;12.03;68.45
22964;BME280;11648;49.306;6.934;2023-12-22T02:22:59;97483.72;;;12.33;67.52
22964;BME280;11648;49.306;6.934;2023-12-22T02:25:25;97494.84;;;12.16;68.11
22964;BME280;11648;49.306;6.934;2023-12-22T02:28:04;97483.34;;;12.44;67.64
22964;BME280;11648;49.306;6.934;2023-12-22T02:30:40;97483.09;;;11.99;68.44
22964;BME280;11648;49.306;6.934;2023-12-22T02:33:08;97492.81;;;12.24;67.83
22964;BME280;11648;49.306;6.934;2023-12-22T02:35:37;97495.28;;;12.29;67.44
22964;BME280;11648;49.306;6.934;2023-12-22T02:38:06;97483.28;;;12.20;66.90
22964;BME280;11648;49.306;6.934;2023-12-22T02:40:34;97464.38;;;12.32;66.74
22964;BME280;11648;49.306;6.934;2023-12-22T02:43:02;97477.38;;;12.38;66.06
22964;BME280;11648;49.306;6.934;2023-12-22T02:45:29;97474.19;;;12.54;66.21
22964;BME280;11648;49.306;6.934;2023-12-22T02:47:57;97478.81;;;12.73;65.46
22964;BME280;11648;49.306;6.934;2023-12-22T02:50:24;97474.91;;;12.83;65.10
22964;BME280;11648;49.306;6.934;2023-12-22T02:52:51;97506.19;;;12.71;65.66
22964;BME280;11648;49.306;6.934;2023-12-22T02:55:18;97526.69;;;12.89;65.92
22964;BME280;11648;49.306;6.934;2023-12-22T02:57:45;97496.53;;;12.95;67.32
22964;BME280;11648;49.306;6.934;2023-12-22T03:00:12;97495.03;;;12.63;68.65
22964;BME280;11648;49.306;6.934;2023-12-22T03:02:39;97486.75;;;12.47;68.74
22964;BME280;11648;49.306;6.934;2023-12-22T03:05:06;97492.75;;;12.26;69.81
22964;BME280;11648;49.306;6.934;2023-12-22T03:07:33;97502.50;;;12.24;70.82
22964;BME280;11648;49.306;6.934;2023-12-22T03:10:00;97510.88;;;12.36;70.37
22964;BME280;11648;49.306;6.934;2023-12-22T03:12:27;97523.31;;;12.33;70.50
22964;BME280;11648;49.306;6.934;2023-12-22T03:14:53;97514.47;;;12.34;70.68
22964;BME280;11648;49.306;6.934;2023-12-22T03:17:20;97515.59;;;12.53;69.97
22964;BME280;11648;49.306;6.934;2023-12-22T03:19:47;97488.75;;;12.65;69.69
22964;BME280;11648;49.306;6.934;2023-12-22T03:22:14;97491.63;;;12.33;70.22
22964;BME280;11648;49.306;6.934;2023-12-22T03:24:41;97487.38;;;12.55;69.38
22964;BME280;11648;49.306;6.934;2023-12-22T03:27:07;97490.38;;;12.45;69.88
22964;BME280;11648;49.306;6.934;2023-12-22T03:29:34;97493.66;;;12.51;69.95
22964;BME280;11648;49.306;6.934;2023-12-22T03:32:01;97504.56;;;12.67;69.21
22964;BME280;11648;49.306;6.934;2023-12-22T03:34:28;97509.69;;;12.71;69.44
22964;BME280;11648;49.306;6.934;2023-12-22T03:36:55;97497.41;;;12.44;69.66
22964;BME280;11648;49.306;6.934;2023-12-22T03:39:22;97503.91;;;12.34;70.48
22964;BME280;11648;49.306;6.934;2023-12-22T03:41:48;97506.47;;;12.37;70.39
22964;BME280;11648;49.306;6.934;2023-12-22T03:44:16;97499.31;;;12.41;69.63
22964;BME280;11648;49.306;6.934;2023-12-22T03:46:43;97488.38;;;12.25;69.74
22964;BME280;11648;49.306;6.934;2023-12-22T03:49:10;97499.31;;;12.41;69.44
22964;BME280;11648;49.306;6.934;2023-12-22T03:51:37;97513.56;;;12.35;69.33
22964;BME280;11648;49.306;6.934;2023-12-22T03:54:04;97505.28;;;12.46;69.00
22964;BME280;11648;49.306;6.934;2023-12-22T03:56:31;97508.03;;;12.43;68.86
22964;BME280;11648;49.306;6.934;2023-12-22T03:58:58;97507.72;;;12.25;69.23
22964;BME280;11648;49.306;6.934;2023-12-22T04:01:24;97514.59;;;12.31;69.10
22964;BME280;11648;49.306;6.934;2023-12-22T04:03:52;97519.28;;;12.21;69.06
22964;BME280;11648;49.306;6.934;2023-12-22T04:06:19;97499.56;;;12.33;68.59
22964;BME280;11648;49.306;6.934;2023-12-22T04:08:45;97506.41;;;12.12;69.17
22964;BME280;11648;49.306;6.934;2023-12-22T04:11:12;97506.19;;;12.18;68.75
22964;BME280;11648;49.306;6.934;2023-12-22T04:13:39;97510.69;;;12.15;68.91
22964;BME280;11648;49.306;6.934;2023-12-22T04:16:06;97522.75;;;12.23;68.42
22964;BME280;11648;49.306;6.934;2023-12-22T04:18:33;97520.97;;;12.24;68.24
22964;BME280;11648;49.306;6.934;2023-12-22T04:21:00;97523.63;;;12.24;68.47
22964;BME280;11648;49.306;6.934;2023-12-22T04:23:27;97509.56;;;12.23;68.62
22964;BME280;11648;49.306;6.934;2023-12-22T04:25:53;97521.91;;;12.21;68.30
22964;BME280;11648;49.306;6.934;2023-12-22T04:28:20;97518.78;;;12.36;67.70
22964;BME280;11648;49.306;6.934;2023-12-22T04:30:47;97522.53;;;12.29;68.30
22964;BME280;11648;49.306;6.934;2023-12-22T04:33:14;97507.38;;;12.10;68.04
22964;BME280;11648;49.306;6.934;2023-12-22T04:35:41;97525.63;;;12.16;67.91
22964;BME280;11648;49.306;6.934;2023-12-22T04:38:08;97501.38;;;12.05;68.56
22964;BME280;11648;49.306;6.934;2023-12-22T04:40:35;97513.84;;;12.00;68.68
22964;BME280;11648;49.306;6.934;2023-12-22T04:43:02;97516.09;;;12.12;68.04
22964;BME280;11648;49.306;6.934;2023-12-22T04:45:29;97527.13;;;12.24;67.95
22964;BME280;11648;49.306;6.934;2023-12-22T04:47:56;97530.38;;;12.05;68.46
22964;BME280;11648;49.306;6.934;2023-12-22T04:50:24;97533.56;;;12.14;68.27
22964;BME280;11648;49.306;6.934;2023-12-22T04:52:50;97523.19;;;12.36;66.95
22964;BME280;11648;49.306;6.934;2023-12-22T04:55:17;97530.88;;;12.44;66.80
22964;BME280;11648;49.306;6.934;2023-12-22T04:57:44;97537.38;;;12.33;67.56
22964;BME280;11648;49.306;6.934;2023-12-22T05:00:12;97540.66;;;12.66;66.72
22964;BME280;11648;49.306;6.934;2023-12-22T05:02:39;97548.47;;;12.69;66.21
22964;BME280;11648;49.306;6.934;2023-12-22T05:05:06;97540.19;;;12.80;65.74
22964;BME280;11648;49.306;6.934;2023-12-22T05:07:34;97550.44;;;12.64;66.39
22964;BME280;11648;49.306;6.934;2023-12-22T05:10:01;97546.84;;;12.92;65.80
22964;BME280;11648;49.306;6.934;2023-12-22T05:12:29;97554.72;;;12.93;65.78
22964;BME280;11648;49.306;6.934;2023-12-22T05:14:56;97547.88;;;12.86;66.00
22964;BME280;11648;49.306;6.934;2023-12-22T05:17:22;97550.00;;;13.01;65.69
22964;BME280;11648;49.306;6.934;2023-12-22T05:19:49;97555.81;;;12.86;66.08
22964;BME280;11648;49.306;6.934;2023-12-22T05:22:16;97557.66;;;13.10;65.36
22964;BME280;11648;49.306;6.934;2023-12-22T05:24:43;97561.44;;;13.02;66.22
22964;BME280;11648;49.306;6.934;2023-12-22T05:27:10;97561.06;;;12.87;66.52
22964;BME280;11648;49.306;6.934;2023-12-22T05:29:37;97560.84;;;12.94;67.00
22964;BME280;11648;49.306;6.934;2023-12-22T05:32:05;97568.25;;;12.82;67.52
22964;BME280;11648;49.306;6.934;2023-12-22T05:34:32;97574.78;;;12.97;68.26
22964;BME280;11648;49.306;6.934;2023-12-22T05:36:59;97567.63;;;13.01;68.70
22964;BME280;11648;49.306;6.934;2023-12-22T05:39:26;97573.59;;;13.07;68.65
22964;BME280;11648;49.306;6.934;2023-12-22T05:41:52;97570.50;;;12.95;69.53
22964;BME280;11648;49.306;6.934;2023-12-22T05:44:19;97581.56;;;12.79;69.97
22964;BME280;11648;49.306;6.934;2023-12-22T05:46:46;97582.00;;;12.67;70.66
22964;BME280;11648;49.306;6.934;2023-12-22T05:49:13;97578.41;;;12.95;70.33
22964;BME280;11648;49.306;6.934;2023-12-22T05:51:40;97591.28;;;12.79;70.66
22964;BME280;11648;49.306;6.934;2023-12-22T05:54:08;97568.56;;;13.00;70.24
22964;BME280;11648;49.306;6.934;2023-12-22T05:56:35;97563.19;;;12.76;70.78
22964;BME280;11648;49.306;6.934;2023-12-22T05:59:02;97577.84;;;13.11;70.60
22964;BME280;11648;49.306;6.934;2023-12-22T06:01:30;97556.91;;;13.05;70.87
22964;BME280;11648;49.306;6.934;2023-12-22T06:03:57;97553.50;;;13.02;71.08
22964;BME280;11648;49.306;6.934;2023-12-22T06:06:24;97541.81;;;12.84;71.00
22964;BME280;11648;49.306;6.934;2023-12-22T06:08:51;97544.03;;;12.71;71.47
22964;BME280;11648;49.306;6.934;2023-12-22T06:11:18;97548.81;;;12.60;71.80
22964;BME280;11648;49.306;6.934;2023-12-22T06:13:44;97550.84;;;12.77;71.75
22964;BME280;11648;49.306;6.934;2023-12-22T06:16:12;97562.44;;;12.47;72.40
22964;BME280;11648;49.306;6.934;2023-12-22T06:18:41;97552.06;;;12.93;71.39
22964;BME280;11648;49.306;6.934;2023-12-22T06:21:09;97554.91;;;13.13;70.76
22964;BME280;11648;49.306;6.934;2023-12-22T06:23:37;97563.28;;;12.75;71.84
22964;BME280;11648;49.306;6.934;2023-12-22T06:26:10;97564.81;;;12.80;71.87
22964;BME280;11648;49.306;6.934;2023-12-22T06:28:38;97572.84;;;13.04;71.22
22964;BME280;11648;49.306;6.934;2023-12-22T06:31:09;97578.72;;;13.12;70.95
22964;BME280;11648;49.306;6.934;2023-12-22T06:33:45;97569.44;;;13.00;71.32
22964;BME280;11648;49.306;6.934;2023-12-22T06:36:24;97579.03;;;12.76;71.67
22964;BME280;11648;49.306;6.934;2023-12-22T06:38:52;97594.34;;;12.93;71.29
22964;BME280;11648;49.306;6.934;2023-12-22T06:41:20;97580.16;;;12.69;71.29
22964;BME280;11648;49.306;6.934;2023-12-22T06:43:52;97576.91;;;12.87;70.69
22964;BME280;11648;49.306;6.934;2023-12-22T06:46:21;97585.69;;;12.88;70.91
22964;BME280;11648;49.306;6.934;2023-12-22T06:48:55;97582.84;;;12.94;70.11
22964;BME280;11648;49.306;6.934;2023-12-22T06:51:25;97577.41;;;12.99;70.08
22964;BME280;11648;49.306;6.934;2023-12-22T06:53:54;97568.25;;;12.82;70.44
22964;BME280;11648;49.306;6.934;2023-12-22T06:58:49;97561.56;;;12.99;69.52
22964;BME280;11648;49.306;6.934;2023-12-22T07:01:30;97561.78;;;12.93;69.21
22964;BME280;11648;49.306;6.934;2023-12-22T07:04:02;97559.94;;;12.95;69.06
22964;BME280;11648;49.306;6.934;2023-12-22T07:06:31;97564.72;;;13.08;68.82
22964;BME280;11648;49.306;6.934;2023-12-22T07:11:38;97584.53;;;12.97;68.39
22964;BME280;11648;49.306;6.934;2023-12-22T07:14:05;97586.09;;;13.02;68.63
22964;BME280;11648;49.306;6.934;2023-12-22T07:16:36;97583.97;;;12.87;68.46
22964;BME280;11648;49.306;6.934;2023-12-22T07:19:03;97581.97;;;13.20;67.29
22964;BME280;11648;49.306;6.934;2023-12-22T07:21:31;97583.22;;;13.10;67.86
22964;BME280;11648;49.306;6.934;2023-12-22T07:23:58;97580.56;;;13.08;67.36
22964;BME280;11648;49.306;6.934;2023-12-22T07:26:26;97577.50;;;12.71;68.11
22964;BME280;11648;49.306;6.934;2023-12-22T07:28:55;97578.00;;;12.82;67.25
22964;BME280;11648;49.306;6.934;2023-12-22T07:31:22;97569.34;;;12.77;66.96
22964;BME280;11648;49.306;6.934;2023-12-22T07:33:49;97590.50;;;12.75;67.32
22964;BME280;11648;49.306;6.934;2023-12-22T07:36:16;97591.28;;;12.79;66.71
22964;BME280;11648;49.306;6.934;2023-12-22T07:38:46;97589.19;;;12.88;66.96
22964;BME280;11648;49.306;6.934;2023-12-22T07:41:13;97597.03;;;12.92;66.31
22964;BME280;11648;49.306;6.934;2023-12-22T07:43:39;97590.50;;;12.75;66.53
22964;BME280;11648;49.306;6.934;2023-12-22T07:46:08;97606.06;;;12.84;66.16
22964;BME280;11648;49.306;6.934;2023-12-22T07:48:42;97615.94;;;13.04;65.96
22964;BME280;11648;49.306;6.934;2023-12-22T07:51:12;97609.56;;;12.85;66.44
22964;BME280;11648;49.306;6.934;2023-12-22T07:53:39;97621.16;;;13.07;65.75
22964;BME280;11648;49.306;6.934;2023-12-22T07:56:06;97608.00;;;13.04;65.67
22964;BME280;11648;49.306;6.934;2023-12-22T07:58:34;97610.06;;;13.22;64.92
22964;BME280;11648;49.306;6.934;2023-12-22T08:01:02;97624.63;;;13.09;65.06
22964;BME280;11648;49.306;6.934;2023-12-22T08:03:29;97623.13;;;13.27;64.86
22964;BME280;11648;49.306;6.934;2023-12-22T08:05:56;97625.66;;;13.30;64.61
22964;BME280;11648;49.306;6.934;2023-12-22T08:08:23;97633.84;;;13.22;64.47
22964;BME280;11648;49.306;6.934;2023-12-22T08:10:50;97633.69;;;13.01;65.22
22964;BME280;11648;49.306;6.934;2023-12-22T08:13:17;97637.44;;;13.21;64.37
22964;BME280;11648;49.306;6.934;2023-12-22T08:15:44;97636.22;;;13.30;64.42
22964;BME280;11648;49.306;6.934;2023-12-22T08:18:11;97636.19;;;13.31;64.35
22964;BME280;11648;49.306;6.934;2023-12-22T08:20:39;97638.38;;;13.19;64.80
22964;BME280;11648;49.306;6.934;2023-12-22T08:23:09;97624.25;;;13.45;64.05
22964;BME280;11648;49.306;6.934;2023-12-22T08:25:39;97632.91;;;13.25;64.54
22964;BME280;11648;49.306;6.934;2023-12-22T08:28:10;97631.88;;;13.54;63.99
22964;BME280;11648;49.306;6.934;2023-12-22T08:30:38;97617.91;;;13.73;63.41
22964;BME280;11648;49.306;6.934;2023-12-22T08:33:05;97629.31;;;13.51;63.55
22964;BME280;11648;49.306;6.934;2023-12-22T08:35:32;97620.78;;;13.67;63.34
22964;BME280;11648;49.306;6.934;2023-12-22T08:37:59;97620.19;;;13.59;63.44
22964;BME280;11648;49.306;6.934;2023-12-22T08:40:26;97610.78;;;13.75;63.58
22964;BME280;11648;49.306;6.934;2023-12-22T08:42:54;97601.75;;;13.58;63.66
22964;BME280;11648;49.306;6.934;2023-12-22T08:45:26;97616.00;;;13.77;63.23
22964;BME280;11648;49.306;6.934;2023-12-22T08:47:57;97619.56;;;13.76;63.27
22964;BME280;11648;49.306;6.934;2023-12-22T08:50:24;97617.63;;;13.81;63.33
22964;BME280;11648;49.306;6.934;2023-12-22T08:52:51;97607.66;;;13.88;63.26
22964;BME280;11648;49.306;6.934;2023-12-22T08:55:19;97626.94;;;13.68;63.91
22964;BME280;11648;49.306;6.934;2023-12-22T08:57:46;97630.84;;;13.58;64.23
22964;BME280;11648;49.306;6.934;2023-12-22T09:00:25;97627.63;;;13.73;64.18
22964;BME280;11648;49.306;6.934;2023-12-22T09:02:52;97627.34;;;13.57;65.06
22964;BME280;11648;49.306;6.934;2023-12-22T09:05:20;97620.22;;;13.82;64.63
22964;BME280;11648;49.306;6.934;2023-12-22T09:07:48;97622.72;;;13.62;65.31
22964;BME280;11648;49.306;6.934;2023-12-22T09:10:16;97621.38;;;13.75;65.28
22964;BME280;11648;49.306;6.934;2023-12-22T09:12:42;97619.81;;;13.93;64.91
22964;BME280;11648;49.306;6.934;2023-12-22T09:15:09;97617.22;;;13.92;64.70
22964;BME280;11648;49.306;6.934;2023-12-22T09:17:36;97609.97;;;13.73;65.32
22964;BME280;11648;49.306;6.934;2023-12-22T09:20:04;97617.19;;;13.93;64.92
22964;BME280;11648;49.306;6.934;2023-12-22T09:22:31;97617.50;;;13.84;65.02
22964;BME280;11648;49.306;6.934;2023-12-22T09:24:57;97616.75;;;13.80;65.29
22964;BME280;11648;49.306;6.934;2023-12-22T09:27:25;97610.94;;;13.94;65.05
22964;BME280;11648;49.306;6.934;2023-12-22T09:29:57;97625.31;;;13.87;65.42
22964;BME280;11648;49.306;6.934;2023-12-22T09:32:24;97623.22;;;13.97;65.07
22964;BME280;11648;49.306;6.934;2023-12-22T09:34:51;97621.78;;;14.11;64.86
22964;BME280;11648;49.306;6.934;2023-12-22T09:37:18;97627.91;;;13.65;66.27
22964;BME280;11648;49.306;6.934;2023-12-22T09:39:45;97631.06;;;13.98;65.80
22964;BME280;11648;49.306;6.934;2023-12-22T09:42:13;97624.00;;;13.99;65.78
22964;BME280;11648;49.306;6.934;2023-12-22T09:44:42;97632.69;;;14.25;65.87
22964;BME280;11648;49.306;6.934;2023-12-22T09:47:10;97630.00;;;14.04;67.07
22964;BME280;11648;49.306;6.934;2023-12-22T09:49:40;97619.56;;;14.22;66.57
22964;BME280;11648;49.306;6.934;2023-12-22T09:52:07;97627.69;;;14.18;67.29
22964;BME280;11648;49.306;6.934;2023-12-22T09:54:36;97629.28;;;13.99;68.02
22964;BME280;11648;49.306;6.934;2023-12-22T09:57:05;97633.88;;;14.17;67.46
22964;BME280;11648;49.306;6.934;2023-12-22T09:59:48;97634.47;;;14.25;67.46
22964;BME280;11648;49.306;6.934;2023-12-22T10:02:18;97627.75;;;13.93;68.47
22964;BME280;11648;49.306;6.934;2023-12-22T10:04:45;97626.66;;;13.75;69.35
22964;BME280;11648;49.306;6.934;2023-12-22T10:07:13;97636.78;;;13.88;69.33
22964;BME280;11648;49.306;6.934;2023-12-22T10:09:42;97613.50;;;14.19;68.65
22964;BME280;11648;49.306;6.934;2023-12-22T10:12:11;97618.47;;;14.05;69.07
22964;BME280;11648;49.306;6.934;2023-12-22T10:14:39;97614.56;;;13.92;69.99
22964;BME280;11648;49.306;6.934;2023-12-22T10:17:07;97618.53;;;13.80;70.98
22964;BME280;11648;49.306;6.934;2023-12-22T10:19:34;97622.53;;;14.15;69.54
22964;BME280;11648;49.306;6.934;2023-12-22T10:22:01;97622.38;;;13.95;70.36
22964;BME280;11648;49.306;6.934;2023-12-22T10:24:47;97606.72;;;13.90;70.69
22964;BME280;11648;49.306;6.934;2023-12-22T10:27:15;97609.63;;;14.06;70.26
22964;BME280;11648;49.306;6.934;2023-12-22T10:29:56;97607.28;;;13.75;70.51
22964;BME280;11648;49.306;6.934;2023-12-22T10:32:23;97596.13;;;14.12;69.97
22964;BME280;11648;49.306;6.934;2023-12-22T10:34:53;97586.75;;;14.26;69.77
22964;BME280;11648;49.306;6.934;2023-12-22T10:37:21;97585.19;;;13.99;70.88
22964;BME280;11648;49.306;6.934;2023-12-22T10:39:54;97574.44;;;14.04;70.63
22964;BME280;11648;49.306;6.934;2023-12-22T10:42:21;97573.25;;;14.34;69.98
22964;BME280;11648;49.306;6.934;2023-12-22T10:44:48;97572.75;;;14.01;70.52
22964;BME280;11648;49.306;6.934;2023-12-22T10:47:19;97549.88;;;14.22;70.29
22964;BME280;11648;49.306;6.934;2023-12-22T10:49:48;97551.09;;;14.37;70.06
22964;BME280;11648;49.306;6.934;2023-12-22T10:52:16;97559.22;;;14.30;70.52
22964;BME280;11648;49.306;6.934;2023-12-22T10:54:44;97555.25;;;14.42;69.81
22964;BME280;11648;49.306;6.934;2023-12-22T10:57:11;97554.56;;;14.37;70.25
22964;BME280;11648;49.306;6.934;2023-12-22T10:59:43;97551.84;;;14.17;71.59
22964;BME280;11648;49.306;6.934;2023-12-22T11:02:27;97547.38;;;14.41;71.07
22964;BME280;11648;49.306;6.934;2023-12-22T11:05:01;97549.22;;;14.39;70.81
22964;BME280;11648;49.306;6.934;2023-12-22T11:07:28;97541.75;;;14.48;70.78
22964;BME280;11648;49.306;6.934;2023-12-22T11:09:56;97544.94;;;14.13;71.89
22964;BME280;11648;49.306;6.934;2023-12-22T11:12:27;97541.16;;;13.75;73.60
22964;BME280;11648;49.306;6.934;2023-12-22T11:14:56;97530.31;;;14.26;72.42
22964;BME280;11648;49.306;6.934;2023-12-22T11:17:24;97529.44;;;14.25;72.29
22964;BME280;11648;49.306;6.934;2023-12-22T11:19:53;97527.84;;;14.21;72.65
22964;BME280;11648;49.306;6.934;2023-12-22T11:22:21;97526.72;;;14.27;73.08
22964;BME280;11648;49.306;6.934;2023-12-22T11:24:49;97528.91;;;13.94;74.57
22964;BME280;11648;49.306;6.934;2023-12-22T11:27:17;97517.25;;;14.00;74.09
22964;BME280;11648;49.306;6.934;2023-12-22T11:29:48;97518.13;;;14.22;73.88
22964;BME280;11648;49.306;6.934;2023-12-22T11:32:19;97521.63;;;14.22;74.22
22964;BME280;11648;49.306;6.934;2023-12-22T11:34:46;97517.47;;;14.15;74.35
22964;BME280;11648;49.306;6.934;2023-12-22T11:37:15;97505.50;;;14.28;73.79
22964;BME280;11648;49.306;6.934;2023-12-22T11:39:43;97508.59;;;14.40;73.72
22964;BME280;11648;49.306;6.934;2023-12-22T11:42:18;97509.19;;;14.24;74.05
22964;BME280;11648;49.306;6.934;2023-12-22T11:44:46;97511.22;;;14.18;74.66
22964;BME280;11648;49.306;6.934;2023-12-22T11:47:14;97493.75;;;14.36;74.36
22964;BME280;11648;49.306;6.934;2023-12-22T11:49:41;97504.88;;;14.22;74.74
22964;BME280;11648;49.306;6.934;2023-12-22T11:52:15;97505.91;;;14.61;73.36
22964;BME280;11648;49.306;6.934;2023-12-22T11:54:49;97492.75;;;14.38;74.38
22964;BME280;11648;49.306;6.934;2023-12-22T11:59:55;97491.22;;;14.74;72.71
22964;BME280;11648;49.306;6.934;2023-12-22T12:02:22;97496.84;;;14.67;72.91
22964;BME280;11648;49.306;6.934;2023-12-22T12:04:50;97497.66;;;14.89;72.40
22964;BME280;11648;49.306;6.934;2023-12-22T12:10:03;97486.19;;;14.89;72.23
22964;BME280;11648;49.306;6.934;2023-12-22T12:12:30;97490.41;;;14.93;71.92
22964;BME280;11648;49.306;6.934;2023-12-22T12:14:58;97490.38;;;14.94;71.83
22964;BME280;11648;49.306;6.934;2023-12-22T12:17:33;97482.88;;;15.04;71.75
22964;BME280;11648;49.306;6.934;2023-12-22T12:20:06;97484.59;;;14.84;72.28
22964;BME280;11648;49.306;6.934;2023-12-22T12:22:34;97482.28;;;15.16;71.15
22964;BME280;11648;49.306;6.934;2023-12-22T12:25:01;97489.34;;;14.76;72.64
22964;BME280;11648;49.306;6.934;2023-12-22T12:27:28;97479.06;;;15.09;71.76
22964;BME280;11648;49.306;6.934;2023-12-22T12:29:56;97490.00;;;15.02;72.36
22964;BME280;11648;49.306;6.934;2023-12-22T12:32:25;97483.72;;;14.84;72.66
22964;BME280;11648;49.306;6.934;2023-12-22T12:34:53;97469.88;;;14.77;72.99
22964;BME280;11648;49.306;6.934;2023-12-22T12:37:22;97497.59;;;14.91;72.54
22964;BME280;11648;49.306;6.934;2023-12-22T12:39:50;97492.59;;;15.03;72.31
22964;BME280;11648;49.306;6.934;2023-12-22T12:42:22;97498.09;;;14.99;72.69
22964;BME280;11648;49.306;6.934;2023-12-22T12:44:52;97492.53;;;14.84;73.07
22964;BME280;11648;49.306;6.934;2023-12-22T12:47:19;97491.03;;;14.79;73.46
22964;BME280;11648;49.306;6.934;2023-12-22T12:49:56;97488.50;;;14.96;72.85
22964;BME280;11648;49.306;6.934;2023-12-22T12:52:23;97488.16;;;14.83;73.14
22964;BME280;11648;49.306;6.934;2023-12-22T12:54:52;97480.41;;;14.99;72.87
22964;BME280;11648;49.306;6.934;2023-12-22T12:57:19;97475.00;;;14.82;73.23
22964;BME280;11648;49.306;6.934;2023-12-22T12:59:48;97474.72;;;15.08;71.99
22964;BME280;11648;49.306;6.934;2023-12-22T13:02:19;97477.72;;;15.01;72.09
22964;BME280;11648;49.306;6.934;2023-12-22T13:04:46;97485.78;;;14.98;72.29
22964;BME280;11648;49.306;6.934;2023-12-22T13:07:13;97485.22;;;15.10;72.06
22964;BME280;11648;49.306;6.934;2023-12-22T13:09:40;97484.19;;;14.73;72.46
22964;BME280;11648;49.306;6.934;2023-12-22T13:12:08;97470.91;;;15.14;71.00
22964;BME280;11648;49.306;6.934;2023-12-22T13:14:36;97474.28;;;15.17;70.97